Sun City, Florida
Current Conditions -  °F | °C
As of 7:53 AM on Thursday 30 Oct 2014 (Local Time) from KSPG Reporting Station
Overcast Overcast  
Wind Chill: 74°   Ceiling: 12000
Heat Index: 74°   Visibility: 10mi
Dew Point: 66°   Wind: 5mph
Humidity: 76%   Direction: 90°E
Pressure: 29.95"   Gusts: NA
Location:  27.68°N, 82.48°W
Report Text: KSPG 301153Z 09004KT 10SM OVC120 23/19 A2995 RMK AO2 SLP143 T02330189 10239 20228 53003
Loading
Personal Weather Stations






























Interactive Weather Map
Tropical Storm Tracking
New forecast layout! Learn more

10-Day Weather Forecast

Advertisements
Track Severe Weather on mobile